Terminal Aerodrome Forecast
Issued by NWS Cleveland, OH

Home | Current Version | Previous Version | Text Only | Print | Product List | Glossary Off
Versions: 1 2 3 4 5 6 7 8 9 10 11 12 13 14 15 16 17 18 19 20 21

913
FTUS41 KCLE 201141
TAFTOL
TAF
KTOL 201141Z 2012/2112 20007KT P6SM VCSH BKN050 OVC090
     FM201400 18008KT P6SM BKN035
     FM202000 17006KT P6SM VCSH OVC035
      TEMPO 2020/2022 -SHRA BKN015
     FM202300 VRB05KT 5SM -SHRA BR OVC008
     FM210300 01005KT 5SM BR OVC008
     FM210900 35006KT 4SM BR BKN012=

USA.gov is the U.S. government's official web portal to all federal, state and local government web resources and services.